Chişinău, Republica Moldova

11:15 AM EEST on iulie 28, 2014 (GMT +0300)
Chisinau (LUKK) Elev 400 ft | 46.93 °N, 28.93 °E | Change Station

Current weather conditions updated 15 minutes ago

Partly Cloudy
Cer parţial noros
84 °F
Feels Like 83 °F
N
7
Vânt variabil Vânt from est

Today is forecast to be nearly the same temperature as yesterday.

astăzi
High -- | Low -- °F
--% Chance of Precip.
Ieri
High -- | Low -- °F
Precip. -- inch
5:38 AM 8:42 PM
Lună Nouă, 2% visible
Presiunea 30.04 inch
Vizibilitatea 6.2 mile
Nori Few 4900 ft
Indicele de căldură 83 °F
Punctul de rouă 54 °F
Umiditatea 35%
Precipitaţii 0.00 inch
Adâncimea zăpezii Not available.
UV 7 out of 12
Pollen Not available.
Calitatea aerului Not available.
Flu Activity Not available.
METAR LUKK 280800Z 08006KT 030V150 9999 FEW049 29/12 Q1017 R08/65D NOSIG

More Conditions Fewer Conditions

Presiunea 30.04 inch
Vizibilitatea 6.2 mile
Nori Few 4900 ft
Indicele de căldură 83 °F
Punctul de rouă 54 °F
Umiditatea 35%
Precipitaţii 0.00 inch
Adâncimea zăpezii Not available.
UV 7 out of 12
Pollen Not available.
Calitatea aerului Not available.
Flu Activity Not available.
METAR LUKK 280800Z 08006KT 030V150 9999 FEW049 29/12 Q1017 R08/65D NOSIG

More Conditions Fewer Conditions

10-Day Weather Forecast

Almanac

Astronomie

Jul. 28, 2014 Răsărit Apus
Timpul Actual 5:38 AM EEST 8:42 PM EEST
Crepusculul Civil 5:01 AM EEST 9:18 PM EEST
Crepusculul nautic 4:15 AM EEST 10:04 PM EEST
Răsărit Astronomic 3:17 AM EEST 11:01 PM EEST
Luna 7:10 AM EEST 9:02 PM EEST
Durata zilei lumină 16h 16m
Lungimea zilei
15h 04m
Tomorrow will be 2m 28s shorter.
Lună Nouă, 2% of the Moon is Illuminated
astăzi
Lună Nouă
Aug 3
Primul pătrar
Aug 10
Lună plină
Aug 17
Ultimul pătrar
Aug 25
New

Yesterday's Extremes

Country Highs Country Lows

Community

WunderPhotos

Upload Photos

1,738,293 photos uploaded!

Nearby

Calitatea aerului

Not available.

Adâncimea zapezii

Not available.

Earthquake Activity

Oraş Distance Mag. Time & Date
No recent earthquake activity has been reported nearby.
Minimum magnitude displayed is 2.5.

Coastal Water Temperatures

Locul Temperatura
No Stations Reporting

Nearby Weather Stations

There are no personal weather stations in this area.